Main page
METAR-TAF:

METAR-TAF

Airports :

Birmingham Airport

Birmingham, England

latitude: 52-27N, longitude: 001-44W, elevation: 99 m

Current weather observation

The report was made 31 minutes ago, at 21:50 UTC
Wind 8 kt from the North
Temperature 6°C
Humidity 81%
Pressure 1033 hPa
Visibility 10 km or more
Broken clouds at a height of 2400 ft
Broken clouds at a height of 3000 ft
light rain

METAR: EGBB 302150Z 01008KT 9999 -RA BKN024 BKN030 06/03 Q1033

Time: 23:21 (22:21 UTC)

Forecast

The report was made 5 hours and 28 minutes ago, at 16:53 UTC
Forecast valid from 30 at 18 UTC to 31 at 18 UTC
Wind 10 kt from the North/Northeast
Visibility 10 km or more
Scattered clouds at a height of 3000 ft
Probability 30% :
Temporary
from 30 at 18 UTC to 30 at 22 UTC
Visibility: 7000 m
rain showers

TAF: EGBB 301653Z 3018/3118 02010KT 9999 SCT030 PROB30 TEMPO 3018/3022 7000 SHRA

Weather observations and forecasts of more than 4000 airports (METAR and TAF reports).

The available stations are represented by yellow and red dots on the map.

Hover mouse over dot to see the name of the station.

Then click to see weather observations and forecasts.

To change the map : click on the green buttons with a black cross to zoom in, on the green button with a dash to zoom out, or on the green arrows for adjacent maps.


METAR-TAF: